Oranjestad, Aruba
Current Conditions -  °F | °C
As of 5:00 PM on Wednesday 22 Oct 2014 (Local Time) from TNCA Reporting Station
Few Clouds Few Clouds  
Wind Chill: 88°   Ceiling: Unl
Heat Index: 100°   Visibility: 6mi
Dew Point: 77°   Wind: 18mph
Humidity: 70%   Direction: 80°E
Pressure: 29.77"   Gusts: NA
Location:  12.51°N, 70.03°W
Report Text: TNCA 222100Z 08016KT 9999 FEW023 31/25 Q1008 A2978 NOSIG
Loading
Personal Weather Stations






























Interactive Weather Map
Tropical Storm Tracking
New forecast layout! Learn more

10-Day Weather Forecast

Advertisements
Track Severe Weather on mobile